createdAt,value
2018-03-29T00:00:57.578Z,73.98
2018-03-29T00:01:57.595Z,74.26
2018-03-29T00:02:57.675Z,72.96
2018-03-29T00:03:57.619Z,72.82
2018-03-29T00:04:57.569Z,73.46
2018-03-29T00:05:57.574Z,73.93
2018-03-29T00:06:57.576Z,73.96
2018-03-29T00:07:57.577Z,74
2018-03-29T00:08:57.607Z,74.15
2018-03-29T00:09:57.636Z,74.62
2018-03-29T00:10:57.586Z,74.87
2018-03-29T00:11:57.580Z,74.89
2018-03-29T00:12:57.606Z,74.79
2018-03-29T00:13:57.610Z,74.99
2018-03-29T00:14:57.574Z,74.74
2018-03-29T00:15:57.580Z,74.82
2018-03-29T00:16:57.588Z,74.97
2018-03-29T00:17:57.576Z,74.87
2018-03-29T00:18:57.576Z,74.75
2018-03-29T00:19:57.618Z,74.52
2018-03-29T00:20:57.580Z,74.75
2018-03-29T00:21:57.596Z,74.9
2018-03-29T00:22:57.577Z,74.66
2018-03-29T00:23:57.579Z,74.52
2018-03-29T00:24:57.579Z,74.59
2018-03-29T00:25:57.603Z,74.22
2018-03-29T00:26:57.579Z,74.61
2018-03-29T00:27:57.580Z,74.32
2018-03-29T00:28:57.582Z,74.78
2018-03-29T00:29:57.578Z,74.76
2018-03-29T00:30:57.605Z,74.87
2018-03-29T00:31:57.588Z,75.03
2018-03-29T00:32:57.581Z,74.06
2018-03-29T00:33:57.639Z,73.77
2018-03-29T00:34:57.582Z,73.53
2018-03-29T00:35:57.772Z,73.32
2018-03-29T00:36:57.585Z,72.65
2018-03-29T00:37:57.582Z,71.99
2018-03-29T00:38:57.581Z,71.68
2018-03-29T00:39:57.588Z,70.82
2018-03-29T00:40:57.607Z,71.33
2018-03-29T00:41:57.581Z,70.55
2018-03-29T00:42:57.588Z,70.06
2018-03-29T00:43:57.584Z,70.05
2018-03-29T00:44:57.590Z,69.91
2018-03-29T00:45:57.584Z,70.16
2018-03-29T00:46:57.604Z,70.46
2018-03-29T00:47:57.591Z,70
2018-03-29T00:48:57.598Z,69.67
2018-03-29T00:49:57.588Z,69.77
2018-03-29T00:50:57.588Z,70.17
2018-03-29T00:51:57.583Z,69.82
2018-03-29T00:52:57.586Z,68.25
2018-03-29T00:53:57.610Z,67.64
2018-03-29T00:54:57.591Z,68.33
2018-03-29T00:55:57.586Z,68.15
2018-03-29T00:56:57.586Z,68.44
2018-03-29T00:57:57.591Z,68.68
2018-03-29T00:58:57.586Z,68.15
2018-03-29T00:59:57.621Z,68.25
2018-03-29T01:00:57.620Z,66.73
2018-03-29T01:01:57.591Z,67.08
2018-03-29T01:02:57.596Z,67.39
2018-03-29T01:03:58.065Z,66.85
2018-03-29T01:04:57.694Z,66.91
2018-03-29T01:05:57.592Z,66.16
2018-03-29T01:06:57.604Z,66.21
2018-03-29T01:07:57.591Z,65.68
2018-03-29T01:08:57.611Z,64.68
2018-03-29T01:09:57.588Z,65.31
2018-03-29T01:10:57.588Z,65.06
2018-03-29T01:11:57.598Z,65.44
2018-03-29T01:12:57.612Z,65.35
2018-03-29T01:13:57.597Z,64.7
2018-03-29T01:14:57.596Z,64.98
2018-03-29T01:15:57.600Z,65.37
2018-03-29T01:16:57.597Z,65.71
2018-03-29T01:17:57.639Z,64.52
2018-03-29T01:18:57.602Z,64.75
2018-03-29T01:19:57.604Z,64.56
2018-03-29T01:20:57.598Z,65.11
2018-03-29T01:21:57.597Z,64.54
2018-03-29T01:22:57.598Z,64.78
2018-03-29T01:23:57.597Z,65
2018-03-29T01:24:57.596Z,64.71
2018-03-29T01:25:57.603Z,65.04
2018-03-29T01:26:57.608Z,65.29
2018-03-29T01:27:57.602Z,65.11
2018-03-29T01:28:57.609Z,64.94
2018-03-29T01:29:57.619Z,65.26
2018-03-29T01:30:57.605Z,65.73
2018-03-29T01:31:57.609Z,65.78
2018-03-29T01:32:57.598Z,65.45
2018-03-29T01:33:57.604Z,65.49
2018-03-29T01:34:57.631Z,65.89
2018-03-29T01:35:57.657Z,65.17
2018-03-29T01:36:57.602Z,65.78
2018-03-29T01:37:57.606Z,65.72
2018-03-29T01:38:57.623Z,65.98
2018-03-29T01:39:57.603Z,66.21
2018-03-29T01:40:57.606Z,65.71
2018-03-29T01:41:57.610Z,65.81
2018-03-29T01:42:57.604Z,66.21
2018-03-29T01:43:57.830Z,65.97
2018-03-29T01:44:57.605Z,66.21
2018-03-29T01:45:57.639Z,66.02
2018-03-29T01:46:57.609Z,66.17
2018-03-29T01:47:57.608Z,65.89
2018-03-29T01:48:57.628Z,66.25
2018-03-29T01:49:57.640Z,65.92
2018-03-29T01:50:57.606Z,66.79
2018-03-29T01:51:57.610Z,66.62
2018-03-29T01:52:57.636Z,66.38
2018-03-29T01:53:57.898Z,66.68
2018-03-29T01:54:57.607Z,66.81
2018-03-29T01:55:57.614Z,66.25
2018-03-29T01:56:57.612Z,66.8
2018-03-29T01:57:57.606Z,66.94
2018-03-29T01:58:57.930Z,66.81
2018-03-29T01:59:57.699Z,66.89
2018-03-29T02:00:57.648Z,67.3
2018-03-29T02:01:57.615Z,66.46
2018-03-29T02:02:57.616Z,66.87
2018-03-29T02:03:57.636Z,66.58
2018-03-29T02:04:57.612Z,66.54
2018-03-29T02:05:57.620Z,66.64
2018-03-29T02:06:57.708Z,66.76
2018-03-29T02:07:57.611Z,67.17
2018-03-29T02:08:57.614Z,67.53
2018-03-29T02:09:57.616Z,67.69
2018-03-29T02:10:57.612Z,67.64
2018-03-29T02:11:57.616Z,67.63
2018-03-29T02:12:57.616Z,67.18
2018-03-29T02:13:57.613Z,67.72
2018-03-29T02:14:57.617Z,67.44
2018-03-29T02:15:57.613Z,67.08
2018-03-29T02:16:57.624Z,67.76
2018-03-29T02:17:57.613Z,67.8
2018-03-29T02:18:57.645Z,67.71
2018-03-29T02:19:57.612Z,67.51
2018-03-29T02:20:57.615Z,67.71
2018-03-29T02:21:57.622Z,68.15
2018-03-29T02:22:57.619Z,68.37
2018-03-29T02:23:57.620Z,68.33
2018-03-29T02:24:57.625Z,68.44
2018-03-29T02:25:57.615Z,68.49
2018-03-29T02:26:57.616Z,68.62
2018-03-29T02:27:57.619Z,67.93
2018-03-29T02:28:57.618Z,68.31
2018-03-29T02:29:57.624Z,68.32
2018-03-29T02:30:57.637Z,68.59
2018-03-29T02:31:57.625Z,69.02
2018-03-29T02:32:57.631Z,69.5
2018-03-29T02:33:57.623Z,68.55
2018-03-29T02:34:57.631Z,69.05
2018-03-29T02:35:57.636Z,69.05
2018-03-29T02:36:57.625Z,69.02
2018-03-29T02:37:57.714Z,68.75
2018-03-29T02:38:57.625Z,68.8
2018-03-29T02:39:57.646Z,68.88
2018-03-29T02:40:57.626Z,69.31
2018-03-29T02:41:57.627Z,69.59
2018-03-29T02:42:57.629Z,69.37
2018-03-29T02:43:57.627Z,69.53
2018-03-29T02:44:57.660Z,69.47
2018-03-29T02:45:57.635Z,69.32
2018-03-29T02:46:57.637Z,69.5
2018-03-29T02:47:57.635Z,69.69
2018-03-29T02:48:57.637Z,69.42
2018-03-29T02:49:57.654Z,69.21
2018-03-29T02:50:57.628Z,69.61
2018-03-29T02:51:57.632Z,69.84
2018-03-29T02:52:57.629Z,69.76
2018-03-29T02:53:57.631Z,69.61
2018-03-29T02:54:57.654Z,69.98
2018-03-29T02:55:57.629Z,70.27
2018-03-29T02:56:57.630Z,70.05
2018-03-29T02:57:57.624Z,70.3
2018-03-29T02:58:57.627Z,69.78
2018-03-29T02:59:57.650Z,69.35
2018-03-29T03:00:57.632Z,69.27
2018-03-29T03:01:57.632Z,69.41
2018-03-29T03:02:57.633Z,69.13
2018-03-29T03:03:57.649Z,69.06
2018-03-29T03:04:57.630Z,69.14
2018-03-29T03:05:57.632Z,69.11
2018-03-29T03:06:57.637Z,69.35
2018-03-29T03:07:57.633Z,69.75
2018-03-29T03:08:57.689Z,69.62
2018-03-29T03:09:57.632Z,70.07
2018-03-29T03:10:57.646Z,70.02
2018-03-29T03:11:57.631Z,69.73
2018-03-29T03:12:57.634Z,70.05
2018-03-29T03:13:57.633Z,70.18
2018-03-29T03:14:57.633Z,70.11
2018-03-29T03:15:57.642Z,70.23
2018-03-29T03:16:57.638Z,70.46
2018-03-29T03:17:57.641Z,70.6
2018-03-29T03:18:57.641Z,70.82
2018-03-29T03:19:57.674Z,70.53
2018-03-29T03:20:57.642Z,70.82
2018-03-29T03:21:57.640Z,70.87
2018-03-29T03:22:57.639Z,71.06
2018-03-29T03:23:57.636Z,71.33
2018-03-29T03:24:57.633Z,71.26
2018-03-29T03:25:57.636Z,71.24
2018-03-29T03:26:57.638Z,71.1
2018-03-29T03:27:57.638Z,71.56
2018-03-29T03:28:57.645Z,71.58
2018-03-29T03:29:57.663Z,72.42
2018-03-29T03:30:57.662Z,71.79
2018-03-29T03:31:57.643Z,72.06
2018-03-29T03:32:57.639Z,72.18
2018-03-29T03:33:57.648Z,72.48
2018-03-29T03:34:57.637Z,72.41
2018-03-29T03:35:57.834Z,72.52
2018-03-29T03:36:57.636Z,72.74
2018-03-29T03:37:57.641Z,72.94
2018-03-29T03:38:57.641Z,72.72
2018-03-29T03:39:57.691Z,72.92
2018-03-29T03:40:57.697Z,73.08
2018-03-29T03:41:57.639Z,73.23
2018-03-29T03:42:57.636Z,73.4
2018-03-29T03:43:57.642Z,73.55
2018-03-29T03:44:57.639Z,73.46
2018-03-29T03:45:57.663Z,74.14
2018-03-29T03:46:57.648Z,74.15
2018-03-29T03:47:57.640Z,74.24
2018-03-29T03:48:57.647Z,74.02
2018-03-29T03:49:57.650Z,73.88
2018-03-29T03:50:57.640Z,74.15
2018-03-29T03:51:57.643Z,73.86
2018-03-29T03:52:57.643Z,73.89
2018-03-29T03:53:57.648Z,73.87
2018-03-29T03:54:57.644Z,73.67
2018-03-29T03:55:57.668Z,74.06
2018-03-29T03:56:57.643Z,73.82
2018-03-29T03:57:57.643Z,74.12
2018-03-29T03:58:57.647Z,74.46
2018-03-29T03:59:57.649Z,74.24
2018-03-29T04:00:57.666Z,74.08
2018-03-29T04:01:57.652Z,73.96
2018-03-29T04:02:57.656Z,74.52
2018-03-29T04:03:57.649Z,74.01
2018-03-29T04:04:57.655Z,73.71
2018-03-29T04:05:57.649Z,73.77
2018-03-29T04:06:57.657Z,73.92
2018-03-29T04:07:57.652Z,73.98
2018-03-29T04:08:57.649Z,73.87
2018-03-29T04:09:57.651Z,74.06
2018-03-29T04:10:57.740Z,74.18
2018-03-29T04:11:58.028Z,74
2018-03-29T04:12:57.653Z,74.3
2018-03-29T04:13:57.656Z,73.85
2018-03-29T04:14:57.661Z,74.39
2018-03-29T04:15:57.653Z,74.34
2018-03-29T04:16:57.679Z,74.41
2018-03-29T04:17:57.658Z,74.38
2018-03-29T04:18:57.668Z,74.34
2018-03-29T04:19:57.692Z,74.29
2018-03-29T04:20:57.655Z,74.54
2018-03-29T04:21:57.672Z,74.33
2018-03-29T04:22:57.654Z,74.5
2018-03-29T04:23:57.658Z,74.64
2018-03-29T04:24:57.673Z,74.83
2018-03-29T04:25:57.661Z,74.61
2018-03-29T04:26:57.657Z,74.77
2018-03-29T04:27:57.681Z,74.73
2018-03-29T04:28:57.669Z,74.78
2018-03-29T04:29:57.662Z,74.86
2018-03-29T04:30:57.659Z,74.88
2018-03-29T04:31:57.661Z,75.37
2018-03-29T04:32:57.666Z,74.88
2018-03-29T04:33:57.663Z,74.93
2018-03-29T04:34:57.661Z,74.74
2018-03-29T04:35:57.679Z,74.86
2018-03-29T04:36:57.673Z,74.95
2018-03-29T04:37:57.660Z,74.77
2018-03-29T04:38:57.671Z,74.96
2018-03-29T04:39:57.658Z,75.19
2018-03-29T04:40:57.665Z,75.09
2018-03-29T04:41:57.734Z,75.27
2018-03-29T04:42:57.669Z,75.39
2018-03-29T04:43:57.668Z,75.07
2018-03-29T04:44:57.665Z,75.39
2018-03-29T04:45:57.669Z,75.47
2018-03-29T04:46:57.664Z,75.43
2018-03-29T04:47:57.666Z,75.27
2018-03-29T04:48:57.677Z,75.61
2018-03-29T04:49:57.676Z,75.85
2018-03-29T04:50:57.667Z,75.71
2018-03-29T04:51:57.676Z,75.64
2018-03-29T04:52:57.664Z,75.8
2018-03-29T04:53:57.668Z,75.91
2018-03-29T04:54:57.670Z,76.46
2018-03-29T04:55:57.666Z,76.45
2018-03-29T04:56:57.675Z,76.02
2018-03-29T04:57:57.677Z,76.16
2018-03-29T04:58:57.681Z,76.12
2018-03-29T04:59:57.715Z,76.57
2018-03-29T05:00:57.671Z,76.44
2018-03-29T05:01:57.671Z,76.16
2018-03-29T05:02:57.693Z,76.31
2018-03-29T05:03:57.675Z,76.83
2018-03-29T05:04:57.678Z,76.49
2018-03-29T05:05:57.682Z,76.2
2018-03-29T05:06:57.681Z,76.37
2018-03-29T05:07:57.687Z,76.24
2018-03-29T05:08:57.674Z,76.31
2018-03-29T05:09:57.684Z,76.36
2018-03-29T05:10:57.671Z,76.17
2018-03-29T05:11:57.677Z,76.14
2018-03-29T05:12:57.766Z,76.38
2018-03-29T05:13:57.686Z,76.45
2018-03-29T05:14:57.676Z,76.4
2018-03-29T05:15:57.684Z,76.24
2018-03-29T05:16:57.677Z,76.33
2018-03-29T05:17:57.677Z,76.2
2018-03-29T05:18:57.679Z,76.08
2018-03-29T05:19:57.679Z,76.1
2018-03-29T05:20:58.477Z,76.18
2018-03-29T05:21:57.679Z,76.06
2018-03-29T05:22:57.675Z,76.09
2018-03-29T05:23:57.675Z,76.32
2018-03-29T05:24:57.681Z,76.52
2018-03-29T05:25:57.680Z,76.98
2018-03-29T05:26:57.678Z,77.06
2018-03-29T05:27:57.704Z,76.96
2018-03-29T05:28:57.682Z,76.6
2018-03-29T05:29:57.680Z,76.67
2018-03-29T05:30:57.686Z,76.68
2018-03-29T05:31:58.068Z,76.86
2018-03-29T05:32:57.696Z,76.82
2018-03-29T05:33:57.679Z,76.79
2018-03-29T05:34:57.698Z,76.41
2018-03-29T05:35:57.687Z,76.51
2018-03-29T05:36:57.706Z,76.45
2018-03-29T05:37:57.692Z,76.73
2018-03-29T05:38:57.680Z,76.76
2018-03-29T05:39:57.687Z,76.92
2018-03-29T05:40:57.685Z,76.48
2018-03-29T05:41:57.682Z,76.34
2018-03-29T05:42:57.681Z,76.67
2018-03-29T05:43:57.747Z,76.57
2018-03-29T05:44:57.701Z,76.77
2018-03-29T05:45:57.687Z,76.73
2018-03-29T05:46:57.712Z,76.94
2018-03-29T05:47:57.686Z,76.94
2018-03-29T05:48:57.687Z,76.58
2018-03-29T05:49:57.691Z,76.51
2018-03-29T05:50:57.691Z,76.46
2018-03-29T05:51:57.902Z,76.5
2018-03-29T05:52:57.693Z,76.28
2018-03-29T05:53:57.719Z,75.96
2018-03-29T05:54:57.687Z,75.9
2018-03-29T05:55:57.694Z,75.94
2018-03-29T05:56:57.718Z,75.93
2018-03-29T05:57:57.691Z,75.92
2018-03-29T05:58:57.691Z,76.28
2018-03-29T05:59:57.706Z,75.99
2018-03-29T06:00:57.696Z,76.29
2018-03-29T06:01:57.728Z,76.11
2018-03-29T06:02:57.701Z,76.14
2018-03-29T06:03:57.690Z,75.95
2018-03-29T06:04:57.694Z,76.03
2018-03-29T06:05:57.693Z,76.13
2018-03-29T06:06:57.719Z,76.13
2018-03-29T06:07:57.694Z,76.03
2018-03-29T06:08:57.698Z,75.84
2018-03-29T06:09:57.697Z,76.17
2018-03-29T06:10:57.712Z,76.1
2018-03-29T06:11:57.866Z,76.01
2018-03-29T06:12:57.702Z,75.99
2018-03-29T06:13:57.692Z,76.05
2018-03-29T06:14:57.760Z,76.13
2018-03-29T06:15:57.697Z,76.16
2018-03-29T06:16:57.720Z,76.44
2018-03-29T06:17:57.696Z,76.54
2018-03-29T06:18:57.694Z,76.58
2018-03-29T06:19:57.813Z,76.86
2018-03-29T06:20:57.696Z,76.81
2018-03-29T06:21:57.707Z,76.91
2018-03-29T06:22:57.726Z,76.66
2018-03-29T06:23:58.745Z,76.35
2018-03-29T06:24:57.703Z,76.16
2018-03-29T06:25:57.697Z,76.16
2018-03-29T06:26:57.720Z,76.09
2018-03-29T06:27:57.832Z,75.95
2018-03-29T06:28:57.696Z,75.9
2018-03-29T06:29:57.732Z,75.97
2018-03-29T06:30:57.704Z,75.76
2018-03-29T06:31:57.716Z,75.42
2018-03-29T06:32:58.367Z,75.64
2018-03-29T06:33:57.729Z,76.15
2018-03-29T06:34:57.706Z,76.17
2018-03-29T06:35:57.698Z,76.16
2018-03-29T06:36:57.702Z,75.84
2018-03-29T06:37:57.730Z,75.83
2018-03-29T06:38:57.704Z,75.74
2018-03-29T06:39:57.724Z,75.65
2018-03-29T06:40:57.699Z,75.76
2018-03-29T06:41:57.724Z,75.41
2018-03-29T06:42:58.046Z,75.16
2018-03-29T06:43:57.756Z,75.21
2018-03-29T06:44:57.708Z,75.06
2018-03-29T06:45:57.753Z,75.16
2018-03-29T06:46:57.766Z,75.26
2018-03-29T06:47:57.721Z,75.55
2018-03-29T06:48:57.704Z,75.13
2018-03-29T06:49:57.709Z,75.18
2018-03-29T06:50:57.707Z,75.41
2018-03-29T06:51:57.710Z,75.4
2018-03-29T06:52:58.017Z,75.28
2018-03-29T06:53:57.703Z,75.52
2018-03-29T06:54:57.745Z,75.43
2018-03-29T06:55:57.701Z,75.25
2018-03-29T06:56:57.706Z,75.51
2018-03-29T06:57:57.733Z,75.7
2018-03-29T06:58:57.705Z,75.56
2018-03-29T06:59:57.704Z,75.36
2018-03-29T07:00:57.785Z,75.45
2018-03-29T07:01:57.709Z,75.35
2018-03-29T07:02:57.735Z,75.22
2018-03-29T07:03:57.717Z,74.4
2018-03-29T07:04:57.715Z,74.49
2018-03-29T07:05:57.719Z,74.48
2018-03-29T07:06:57.714Z,74.6
2018-03-29T07:07:57.712Z,74.47
2018-03-29T07:08:57.711Z,74.79
2018-03-29T07:09:57.715Z,74.46
2018-03-29T07:10:57.727Z,74.37
2018-03-29T07:11:57.754Z,73.61
2018-03-29T07:12:57.708Z,73.93
2018-03-29T07:13:57.712Z,74.11
2018-03-29T07:14:57.771Z,74.17
2018-03-29T07:15:57.709Z,74.53
2018-03-29T07:16:57.807Z,74.14
2018-03-29T07:17:57.723Z,74.13
2018-03-29T07:18:57.738Z,74.17
2018-03-29T07:19:57.722Z,74.37
2018-03-29T07:20:57.718Z,74.56
2018-03-29T07:21:57.721Z,74.24
2018-03-29T07:22:57.731Z,74.3
2018-03-29T07:23:57.723Z,74.35
2018-03-29T07:24:57.716Z,74.34
2018-03-29T07:25:57.719Z,74.26
2018-03-29T07:26:57.724Z,74.58
2018-03-29T07:27:57.716Z,73.76
2018-03-29T07:28:57.721Z,74.12
2018-03-29T07:29:57.717Z,74.29
2018-03-29T07:30:57.718Z,74.31
2018-03-29T07:31:57.715Z,73.99
2018-03-29T07:32:57.723Z,73.7
2018-03-29T07:33:57.727Z,73.27
2018-03-29T07:34:58.103Z,73.26
2018-03-29T07:35:57.725Z,73.46
2018-03-29T07:36:57.733Z,73.33
2018-03-29T07:37:57.730Z,73.75
2018-03-29T07:38:57.724Z,73.44
2018-03-29T07:39:57.748Z,72.75
2018-03-29T07:40:57.747Z,72.62
2018-03-29T07:41:57.719Z,72.24
2018-03-29T07:42:57.721Z,71.78
2018-03-29T07:43:57.726Z,71.94
2018-03-29T07:44:57.719Z,71.7
2018-03-29T07:45:57.724Z,71.21
2018-03-29T07:46:57.720Z,71.01
2018-03-29T07:47:57.788Z,70.9
2018-03-29T07:48:57.994Z,70.99
2018-03-29T07:49:57.735Z,69.95
2018-03-29T07:50:57.731Z,70.39
2018-03-29T07:51:57.725Z,70.43
2018-03-29T07:52:57.729Z,70.61
2018-03-29T07:53:57.751Z,69.83
2018-03-29T07:54:57.740Z,69.72
2018-03-29T07:55:57.731Z,70.06
2018-03-29T07:56:57.738Z,69.02
2018-03-29T07:57:57.745Z,69.81
2018-03-29T07:58:57.721Z,69.53
2018-03-29T07:59:57.723Z,69.68
2018-03-29T08:00:57.726Z,69.68
2018-03-29T08:01:57.725Z,70.13
2018-03-29T08:02:57.726Z,69.12
2018-03-29T08:03:57.744Z,67.91
2018-03-29T08:04:57.724Z,67.97
2018-03-29T08:05:57.730Z,68.87
2018-03-29T08:06:57.741Z,68.93
2018-03-29T08:07:57.729Z,68.76
2018-03-29T08:08:57.732Z,68.65
2018-03-29T08:09:57.759Z,68.64
2018-03-29T08:10:57.734Z,68.99
2018-03-29T08:11:57.726Z,69.47
2018-03-29T08:12:57.727Z,68.75
2018-03-29T08:13:57.752Z,68.45
2018-03-29T08:14:57.727Z,68.29
2018-03-29T08:15:57.724Z,68.47
2018-03-29T08:16:57.724Z,68.31
2018-03-29T08:17:57.726Z,69.02
2018-03-29T08:18:57.803Z,69.3
2018-03-29T08:19:57.732Z,69.29
2018-03-29T08:20:57.831Z,68.91
2018-03-29T08:21:57.741Z,69.09
2018-03-29T08:22:57.735Z,69.14
2018-03-29T08:23:57.761Z,69.26
2018-03-29T08:24:57.744Z,69.45
2018-03-29T08:25:57.734Z,69.75
2018-03-29T08:26:57.735Z,69.44
2018-03-29T08:27:57.735Z,69.19
2018-03-29T08:28:57.801Z,68.62
2018-03-29T08:29:57.734Z,68.55
2018-03-29T08:30:57.732Z,68.44
2018-03-29T08:31:57.731Z,68.41
2018-03-29T08:32:57.734Z,68.53
2018-03-29T08:33:57.755Z,68.74
2018-03-29T08:34:57.737Z,68.9
2018-03-29T08:35:57.735Z,68.79
2018-03-29T08:36:57.747Z,68.66
2018-03-29T08:37:57.740Z,69
2018-03-29T08:38:57.739Z,68.79
2018-03-29T08:39:57.808Z,69.03
2018-03-29T08:40:57.739Z,69.36
2018-03-29T08:41:57.741Z,69.16
2018-03-29T08:42:57.733Z,68.73
2018-03-29T08:43:57.735Z,69.12
2018-03-29T08:44:57.742Z,69.05
2018-03-29T08:45:57.812Z,68.58
2018-03-29T08:46:57.797Z,68.65
2018-03-29T08:47:57.734Z,68.79
2018-03-29T08:48:57.764Z,68.94
2018-03-29T08:49:57.831Z,68.85
2018-03-29T08:50:57.743Z,68.6
2018-03-29T08:51:57.737Z,67.64
2018-03-29T08:52:57.744Z,68.24
2018-03-29T08:53:57.742Z,67.93
2018-03-29T08:54:57.749Z,68.12
2018-03-29T08:55:57.756Z,68.08
2018-03-29T08:56:57.747Z,68.48
2018-03-29T08:57:57.751Z,68.59
2018-03-29T08:58:57.748Z,68.42
2018-03-29T08:59:57.741Z,68.32
2018-03-29T09:00:57.750Z,68.53
2018-03-29T09:01:57.761Z,67.42
2018-03-29T09:02:57.776Z,67.51
2018-03-29T09:03:57.751Z,67.68
2018-03-29T09:04:57.777Z,67.57
2018-03-29T09:05:57.744Z,67.22
2018-03-29T09:06:57.748Z,67.32
2018-03-29T09:07:57.748Z,67.3
2018-03-29T09:08:57.746Z,67.61
2018-03-29T09:09:57.820Z,67.76
2018-03-29T09:10:57.761Z,66.97
2018-03-29T09:11:57.756Z,67.19
2018-03-29T09:12:57.749Z,66.82
2018-03-29T09:13:57.745Z,66.78
2018-03-29T09:14:57.746Z,67.06
2018-03-29T09:15:57.749Z,67.26
2018-03-29T09:16:57.781Z,67.29
2018-03-29T09:17:57.798Z,66.37
2018-03-29T09:18:57.804Z,66.31
2018-03-29T09:19:57.753Z,66.37
2018-03-29T09:20:57.809Z,65.93
2018-03-29T09:21:57.749Z,66.62
2018-03-29T09:22:57.753Z,65.67
2018-03-29T09:23:57.758Z,65.59
2018-03-29T09:24:57.776Z,65.58
2018-03-29T09:25:57.764Z,65.26
2018-03-29T09:26:57.762Z,65.39
2018-03-29T09:27:57.756Z,65.6
2018-03-29T09:28:57.753Z,64.6
2018-03-29T09:29:57.838Z,64.34
2018-03-29T09:30:57.754Z,64.98
2018-03-29T09:31:57.758Z,65.28
2018-03-29T09:32:57.758Z,64.01
2018-03-29T09:33:57.755Z,64.04
2018-03-29T09:34:57.760Z,62.99
2018-03-29T09:35:57.765Z,63.76
2018-03-29T09:36:57.765Z,64.03
2018-03-29T09:37:57.758Z,63.83
2018-03-29T09:38:58.269Z,63.22
2018-03-29T09:39:57.759Z,62.63
2018-03-29T09:40:57.770Z,63.67
2018-03-29T09:41:57.769Z,64.13
2018-03-29T09:42:57.759Z,64.47
2018-03-29T09:43:57.762Z,62.32
2018-03-29T09:44:57.768Z,62.38
2018-03-29T09:45:57.761Z,61.65
2018-03-29T09:46:57.760Z,61.11
2018-03-29T09:47:57.788Z,62.27
2018-03-29T09:48:57.762Z,62.32
2018-03-29T09:49:57.763Z,62.56
2018-03-29T09:50:57.763Z,62.18
2018-03-29T09:51:57.842Z,61.01
2018-03-29T09:52:57.777Z,61.54
2018-03-29T09:53:57.765Z,60.41
2018-03-29T09:54:57.785Z,61.36
2018-03-29T09:55:57.764Z,61.37
2018-03-29T09:56:57.785Z,61.04
2018-03-29T09:57:57.778Z,59.61
2018-03-29T09:58:57.769Z,59.5
2018-03-29T09:59:57.774Z,56.91
2018-03-29T10:00:57.768Z,55.48
2018-03-29T10:01:57.807Z,56.63
2018-03-29T10:02:57.767Z,57.43
2018-03-29T10:03:57.768Z,58.87
2018-03-29T10:04:57.767Z,57.93
2018-03-29T10:05:57.770Z,58
2018-03-29T10:06:57.769Z,58.3
2018-03-29T10:07:57.766Z,58.23
2018-03-29T10:08:57.771Z,59.8
2018-03-29T10:09:57.774Z,59.62
2018-03-29T10:10:57.771Z,59.33
2018-03-29T10:11:57.773Z,58.07
2018-03-29T10:12:57.777Z,59.03
2018-03-29T10:13:57.774Z,56.66
2018-03-29T10:14:57.777Z,56.46
2018-03-29T10:15:57.803Z,57.27
2018-03-29T10:16:57.793Z,57.84
2018-03-29T10:17:57.772Z,57.67
2018-03-29T10:18:57.777Z,58.38
2018-03-29T10:19:57.773Z,58.33
2018-03-29T10:20:57.789Z,58.82
2018-03-29T10:21:57.794Z,59.44
2018-03-29T10:22:57.855Z,58.96
2018-03-29T10:23:57.785Z,59.03
2018-03-29T10:24:57.784Z,57.46
2018-03-29T10:25:57.782Z,58.07
2018-03-29T10:26:57.778Z,58.53
2018-03-29T10:27:57.782Z,58.88
2018-03-29T10:28:57.787Z,57.7
2018-03-29T10:29:57.780Z,58.67
2018-03-29T10:30:57.792Z,58.78
2018-03-29T10:31:57.774Z,59.52
2018-03-29T10:32:57.796Z,59.04
2018-03-29T10:33:57.780Z,58.14
2018-03-29T10:34:57.774Z,58.57
2018-03-29T10:35:57.774Z,57.93
2018-03-29T10:36:57.777Z,58.37
2018-03-29T10:37:57.784Z,56.97
2018-03-29T10:38:57.781Z,56.04
2018-03-29T10:39:57.800Z,55.67
2018-03-29T10:40:57.775Z,55.77
2018-03-29T10:41:57.777Z,55.81
2018-03-29T10:42:57.783Z,56.81
2018-03-29T10:43:57.792Z,57.17
2018-03-29T10:44:57.787Z,57.29
2018-03-29T10:45:57.790Z,56.12
2018-03-29T10:46:57.841Z,56.72
2018-03-29T10:47:57.781Z,54.34
2018-03-29T10:48:57.779Z,54.75
2018-03-29T10:49:57.778Z,54.73
2018-03-29T10:50:57.781Z,55.78
2018-03-29T10:51:57.805Z,55.08
2018-03-29T10:52:57.780Z,54.94
2018-03-29T10:53:57.862Z,55.02
2018-03-29T10:54:57.777Z,54.45
2018-03-29T10:55:57.782Z,55.42
2018-03-29T10:56:57.783Z,55.31
2018-03-29T10:57:57.787Z,55.42
2018-03-29T10:58:57.789Z,55
2018-03-29T10:59:57.786Z,54.02
2018-03-29T11:00:57.788Z,53.09
2018-03-29T11:01:57.811Z,53.41
2018-03-29T11:02:57.787Z,52.63
2018-03-29T11:03:57.791Z,53.27
2018-03-29T11:04:57.798Z,53.83
2018-03-29T11:05:57.796Z,53.59
2018-03-29T11:06:57.809Z,53.17
2018-03-29T11:07:57.806Z,53.25
2018-03-29T11:08:57.796Z,53.55
2018-03-29T11:09:57.801Z,53.33
2018-03-29T11:10:57.791Z,52.89
2018-03-29T11:11:57.820Z,53.31
2018-03-29T11:12:57.816Z,52.24
2018-03-29T11:13:57.793Z,50.58
2018-03-29T11:14:57.816Z,51.58
2018-03-29T11:15:57.808Z,50.65
2018-03-29T11:16:57.834Z,51.41
2018-03-29T11:17:57.805Z,50.85
2018-03-29T11:18:57.791Z,50.89
2018-03-29T11:19:57.796Z,52.45
2018-03-29T11:20:57.790Z,51.35
2018-03-29T11:21:57.815Z,51.11
2018-03-29T11:22:57.800Z,50.97
2018-03-29T11:23:57.805Z,51.9
2018-03-29T11:24:57.914Z,50.82
2018-03-29T11:25:57.814Z,50.37
2018-03-29T11:26:57.799Z,49.15
2018-03-29T11:27:57.798Z,49.04
2018-03-29T11:28:57.822Z,47.49
2018-03-29T11:29:57.807Z,47.62
2018-03-29T11:30:57.804Z,48.78
2018-03-29T11:31:57.813Z,49.6
2018-03-29T11:32:57.811Z,48.47
2018-03-29T11:33:57.800Z,50.1
2018-03-29T11:34:57.804Z,49.42
2018-03-29T11:35:57.845Z,50.54
2018-03-29T11:36:57.801Z,49.06
2018-03-29T11:37:57.801Z,47.74
2018-03-29T11:38:57.822Z,48.62
2018-03-29T11:39:57.809Z,48.37
2018-03-29T11:40:57.810Z,49.15
2018-03-29T11:41:57.825Z,49.23
2018-03-29T11:42:57.801Z,49.47
2018-03-29T11:43:57.816Z,50.48
2018-03-29T11:44:57.809Z,48.93
2018-03-29T11:45:57.808Z,48.31
2018-03-29T11:46:57.815Z,47.76
2018-03-29T11:47:57.810Z,48.14
2018-03-29T11:48:57.810Z,49.36
2018-03-29T11:49:57.803Z,49.24
2018-03-29T11:50:57.808Z,48.66
2018-03-29T11:51:57.811Z,50.04
2018-03-29T11:52:57.865Z,50.91
2018-03-29T11:53:57.803Z,48.85
2018-03-29T11:54:57.808Z,49.14
2018-03-29T11:55:57.867Z,49.7
2018-03-29T11:56:57.811Z,49.92
2018-03-29T11:57:57.817Z,48.9
2018-03-29T11:58:57.832Z,50.22
2018-03-29T11:59:57.816Z,48.5
2018-03-29T12:00:57.819Z,49.12
2018-03-29T12:01:57.817Z,49.5
2018-03-29T12:02:57.839Z,48.45
2018-03-29T12:03:57.818Z,49.2
2018-03-29T12:04:57.851Z,50.26
2018-03-29T12:05:57.913Z,48.9
2018-03-29T12:06:57.815Z,49.22
2018-03-29T12:07:57.817Z,49.44
2018-03-29T12:08:57.871Z,50.39
2018-03-29T12:09:57.825Z,50.52
2018-03-29T12:10:57.844Z,50.53
2018-03-29T12:11:57.814Z,50.09
2018-03-29T12:12:57.821Z,50.14
2018-03-29T12:13:57.815Z,49.77
2018-03-29T12:14:57.822Z,49.07
2018-03-29T12:15:57.825Z,48.02
2018-03-29T12:16:57.832Z,49.59
2018-03-29T12:17:57.829Z,49.46
2018-03-29T12:18:57.828Z,49.16
2018-03-29T12:19:57.831Z,48.45
2018-03-29T12:20:57.820Z,48.81
2018-03-29T12:21:57.817Z,49.14
2018-03-29T12:22:57.824Z,49.18
2018-03-29T12:23:57.846Z,49.71
2018-03-29T12:24:57.821Z,51.05
2018-03-29T12:25:57.819Z,50.03
2018-03-29T12:26:57.883Z,49.09
2018-03-29T12:27:57.825Z,50.9
2018-03-29T12:28:57.827Z,49.22
2018-03-29T12:29:57.826Z,49.98
2018-03-29T12:30:57.847Z,50.49
2018-03-29T12:31:57.855Z,48.95
2018-03-29T12:32:57.834Z,49.84
2018-03-29T12:33:57.825Z,49.41
2018-03-29T12:34:57.888Z,50.23
2018-03-29T12:35:57.842Z,50.3
2018-03-29T12:36:57.831Z,51.03
2018-03-29T12:37:57.877Z,51.13
2018-03-29T12:38:57.828Z,51.44
2018-03-29T12:39:57.851Z,49.01
2018-03-29T12:40:57.834Z,50.12
2018-03-29T12:41:57.831Z,50.89
2018-03-29T12:42:57.832Z,50.39
2018-03-29T12:43:57.828Z,50.53
2018-03-29T12:44:57.912Z,49.69
2018-03-29T12:45:57.828Z,50.19
2018-03-29T12:46:57.883Z,50.57
2018-03-29T12:47:57.843Z,50.08
2018-03-29T12:48:57.844Z,51
2018-03-29T12:49:57.868Z,51.31
2018-03-29T12:50:57.840Z,50.93
2018-03-29T12:51:57.853Z,50.63
2018-03-29T12:52:57.834Z,50.97
2018-03-29T12:53:57.843Z,50.29
2018-03-29T12:54:57.871Z,50.1
2018-03-29T12:55:57.834Z,50.59